Time;durP1;ratioP1;P1;durP2;ratioP2;P2;SDS_P1;SDS_P2;PMS_P1;PMS_P2;Temp;Humidity;BMP_temperature;BMP_pressure;BME280_temperature;BME280_humidity;BME280_pressure;Samples;Min_cycle;Max_cycle;Signal;HPM_P1;HPM_P2
2022/10/31 00:01:58;;;;;;;9.45;3.58;;;7.80;99.90;;;;;;4985341;28;20031;-31
2022/10/31 00:04:24;;;;;;;5.82;3.85;;;8.00;99.90;;;;;;4985257;28;20277;-32
2022/10/31 00:06:50;;;;;;;11.10;3.63;;;8.10;99.90;;;;;;4984055;28;20435;-31
2022/10/31 00:09:15;;;;;;;12.35;4.13;;;8.00;99.90;;;;;;4983962;28;20034;-30
2022/10/31 00:11:41;;;;;;;24.92;6.55;;;7.90;99.90;;;;;;4985334;28;20038;-31
2022/10/31 00:14:06;;;;;;;8.10;4.10;;;7.80;99.90;;;;;;4988344;28;20050;-32
2022/10/31 00:16:32;;;;;;;7.40;3.83;;;7.90;99.90;;;;;;4989810;28;20030;-32
2022/10/31 00:19:00;;;;;;;4.63;3.47;;;8.00;99.90;;;;;;4986823;28;20050;-32
2022/10/31 00:21:26;;;;;;;3.97;3.55;;;8.10;99.90;;;;;;4990806;28;20093;-32
2022/10/31 00:23:52;;;;;;;8.40;4.22;;;8.20;99.90;;;;;;4990849;28;20431;-31
2022/10/31 00:26:18;;;;;;;6.20;3.75;;;8.30;99.90;;;;;;4987892;28;20065;-36
2022/10/31 00:28:44;;;;;;;5.40;3.83;;;8.40;99.90;;;;;;4988459;28;20030;-33
2022/10/31 00:31:11;;;;;;;7.45;3.80;;;8.50;99.90;;;;;;4990117;28;20049;-31
2022/10/31 00:33:39;;;;;;;6.43;3.83;;;8.20;99.90;;;;;;4988345;28;20511;-33
2022/10/31 00:36:05;;;;;;;5.23;3.73;;;8.10;99.90;;;;;;4998847;28;20065;-35
2022/10/31 00:38:31;;;;;;;125.78;10.75;;;8.20;99.90;;;;;;4990825;28;20332;-34
2022/10/31 00:40:57;;;;;;;72.60;6.13;;;8.00;99.90;;;;;;4989718;28;20434;-33
2022/10/31 00:43:23;;;;;;;3.50;3.20;;;7.90;99.90;;;;;;4990033;28;20026;-32
2022/10/31 00:45:48;;;;;;;5.68;3.58;;;8.00;99.90;;;;;;4991133;28;20029;-32
2022/10/31 00:48:14;;;;;;;4.03;3.63;;;8.00;99.90;;;;;;4986919;28;20042;-32
2022/10/31 00:50:41;;;;;;;7.63;3.22;;;7.90;99.90;;;;;;4986768;28;20033;-33
2022/10/31 00:53:07;;;;;;;5.75;3.63;;;7.70;99.90;;;;;;4992902;28;20126;-31
2022/10/31 00:55:33;;;;;;;4.03;3.45;;;7.70;99.90;;;;;;4989441;28;20455;-32
2022/10/31 00:57:58;;;;;;;6.13;3.40;;;7.80;99.90;;;;;;4989383;28;20488;-31
2022/10/31 01:00:24;;;;;;;7.53;3.58;;;7.80;99.90;;;;;;4987201;28;20059;-31
2022/10/31 01:02:50;;;;;;;4.95;3.55;;;7.90;99.90;;;;;;4987255;28;20061;-31
2022/10/31 01:05:16;;;;;;;4.75;3.35;;;8.00;99.90;;;;;;4986053;28;20042;-32
2022/10/31 01:07:42;;;;;;;6.00;3.80;;;8.00;99.90;;;;;;4991656;28;20023;-38
2022/10/31 01:10:08;;;;;;;4.97;3.40;;;8.00;99.90;;;;;;4984719;28;20121;-31
2022/10/31 01:12:42;;;;;;;4.20;3.65;;;8.00;99.90;;;;;;4995673;28;20033;-31
2022/10/31 01:15:10;;;;;;;6.35;3.38;;;7.80;99.90;;;;;;4987012;28;20049;-32
2022/10/31 01:17:35;;;;;;;13.68;3.53;;;7.70;99.90;;;;;;4988886;28;20113;-31
2022/10/31 01:20:01;;;;;;;26.17;4.55;;;7.60;99.90;;;;;;4988052;28;20127;-30
2022/10/31 01:22:27;;;;;;;44.75;5.88;;;7.60;99.90;;;;;;4990057;28;20034;-33
2022/10/31 01:24:52;;;;;;;6.70;3.40;;;7.50;99.90;;;;;;4987389;28;20034;-32
2022/10/31 01:27:18;;;;;;;32.15;5.20;;;7.50;99.90;;;;;;4987621;28;20054;-32
2022/10/31 01:29:44;;;;;;;45.38;7.60;;;7.50;99.90;;;;;;4981362;28;20026;-31
2022/10/31 01:32:09;;;;;;;31.13;5.03;;;7.60;99.90;;;;;;4987237;28;20100;-34
2022/10/31 01:34:35;;;;;;;16.38;4.80;;;7.50;99.90;;;;;;4990443;28;20475;-32
2022/10/31 01:37:00;;;;;;;59.92;6.18;;;7.60;99.90;;;;;;4986291;28;20033;-32
2022/10/31 01:39:26;;;;;;;74.10;9.23;;;7.60;99.90;;;;;;4983958;28;20026;-32
2022/10/31 01:41:53;;;;;;;45.97;5.68;;;7.60;99.90;;;;;;4982594;28;20040;-32
2022/10/31 01:44:19;;;;;;;46.08;7.80;;;7.60;99.90;;;;;;4989016;28;20034;-31
2022/10/31 01:47:02;;;;;;;7.00;3.70;;;7.60;99.90;;;;;;4984013;28;20026;-35
2022/10/31 01:49:44;;;;;;;11.93;4.75;;;7.70;99.90;;;;;;4985926;28;20026;-31
2022/10/31 01:52:20;;;;;;;27.38;4.65;;;7.80;99.90;;;;;;4988795;28;20087;-34
2022/10/31 01:54:55;;;;;;;13.48;4.88;;;7.80;99.90;;;;;;4987781;28;20034;-31
2022/10/31 01:57:22;;;;;;;5.05;3.28;;;7.90;99.90;;;;;;4991004;28;20861;-32
2022/10/31 01:59:52;;;;;;;4.82;3.40;;;7.90;99.90;;;;;;4988378;28;20042;-32
2022/10/31 02:02:19;;;;;;;6.65;3.30;;;7.90;99.90;;;;;;4987089;28;20042;-32
2022/10/31 02:04:45;;;;;;;6.10;3.50;;;7.90;99.90;;;;;;4988203;28;20112;-31
2022/10/31 02:07:20;;;;;;;3.63;3.20;;;7.90;99.90;;;;;;4985299;28;20030;-32
2022/10/31 02:09:47;;;;;;;3.63;2.92;;;8.00;99.90;;;;;;4987754;28;20115;-36
2022/10/31 02:12:14;;;;;;;7.28;3.20;;;7.90;99.90;;;;;;4983909;28;20034;-32
2022/10/31 02:14:41;;;;;;;6.00;3.30;;;7.80;99.90;;;;;;4985935;28;20038;-30
2022/10/31 02:17:06;;;;;;;16.73;3.60;;;7.70;99.90;;;;;;4983428;28;20568;-31
2022/10/31 02:19:35;;;;;;;5.18;2.95;;;7.70;99.90;;;;;;4988306;28;20069;-32
2022/10/31 02:22:09;;;;;;;4.47;3.58;;;7.70;99.90;;;;;;4982654;28;20030;-34
2022/10/31 02:24:37;;;;;;;7.70;3.05;;;7.60;99.90;;;;;;4987693;28;20111;-32
2022/10/31 02:27:09;;;;;;;;;;;7.50;99.90;;;;;;4983355;28;20026;-31
2022/10/31 02:29:59;;;;;;;4.53;2.70;;;7.30;99.90;;;;;;4989097;28;21950;-33
2022/10/31 02:32:46;;;;;;;5.95;3.00;;;7.20;99.90;;;;;;4987338;28;20495;-31
2022/10/31 02:35:36;;;;;;;4.75;3.05;;;7.30;99.90;;;;;;4988460;28;20118;-31
2022/10/31 02:38:15;;;;;;;5.20;3.58;;;7.30;99.90;;;;;;4987708;28;20026;-31
2022/10/31 02:41:13;;;;;;;4.10;2.97;;;7.30;99.90;;;;;;4986208;28;20446;-32
2022/10/31 02:44:05;;;;;;;4.72;2.90;;;7.30;99.90;;;;;;4986692;28;20864;-34
2022/10/31 02:46:35;;;;;;;10.85;2.75;;;7.20;99.90;;;;;;4988232;28;20108;-33
2022/10/31 02:49:10;;;;;;;13.45;3.63;;;7.10;99.90;;;;;;4989430;28;20034;-31
2022/10/31 02:51:36;;;;;;;4.38;3.42;;;7.00;99.90;;;;;;4984677;28;20514;-31
2022/10/31 02:57:28;;;;;;;2.92;2.35;;;7.00;99.90;;;;;;4986832;28;20092;-30
2022/10/31 03:00:07;;;;;;;4.57;3.03;;;6.90;99.90;;;;;;4984241;28;20023;-31
2022/10/31 03:02:41;;;;;;;;;;;7.00;99.90;;;;;;4984685;28;20106;-31
2022/10/31 03:05:32;;;;;;;5.38;2.90;;;7.00;99.90;;;;;;4985911;28;20008;-30
2022/10/31 03:08:15;;;;;;;6.47;3.08;;;7.10;99.90;;;;;;4985609;28;20030;-32
2022/10/31 03:10:46;;;;;;;4.18;3.00;;;7.20;99.90;;;;;;4983699;28;20046;-32
2022/10/31 03:13:20;;;;;;;3.00;2.40;;;7.20;99.90;;;;;;4988927;28;20027;-32
2022/10/31 03:15:51;;;;;;;4.13;2.45;;;7.20;99.90;;;;;;4986657;28;20034;-32
2022/10/31 03:18:27;;;;;;;4.20;3.00;;;7.30;99.90;;;;;;4984830;28;20476;-31
2022/10/31 03:21:13;;;;;;;6.80;3.53;;;7.40;99.90;;;;;;4985555;28;20038;-32
2022/10/31 03:23:40;;;;;;;7.90;3.28;;;7.40;99.90;;;;;;4985500;28;20033;-33
2022/10/31 03:26:08;;;;;;;7.35;3.75;;;7.40;99.90;;;;;;4985728;28;20061;-34
2022/10/31 03:28:46;;;;;;;7.68;4.38;;;7.50;99.90;;;;;;4981948;28;20019;-32
2022/10/31 03:31:16;;;;;;;6.38;3.25;;;7.40;99.90;;;;;;4988414;28;20038;-35
2022/10/31 03:33:44;;;;;;;4.13;2.80;;;7.30;99.90;;;;;;4985720;28;20089;-32
2022/10/31 03:36:11;;;;;;;5.32;3.05;;;7.20;99.90;;;;;;4984920;28;20457;-31
2022/10/31 03:38:38;;;;;;;5.32;3.10;;;7.20;99.90;;;;;;4988166;28;20077;-34
2022/10/31 03:41:07;;;;;;;3.67;3.08;;;7.30;99.90;;;;;;4987128;28;20031;-36
2022/10/31 03:43:40;;;;;;;6.10;3.15;;;7.30;99.90;;;;;;4988936;28;20018;-34
2022/10/31 03:46:06;;;;;;;3.20;2.90;;;7.30;99.90;;;;;;4982457;28;20069;-31
2022/10/31 03:48:32;;;;;;;6.05;3.15;;;7.30;99.90;;;;;;4982804;28;20034;-31
2022/10/31 03:51:25;;;;;;;3.25;2.50;;;7.40;99.90;;;;;;4982702;28;20085;-32
2022/10/31 03:53:59;;;;;;;5.75;2.53;;;7.20;99.90;;;;;;4989636;28;20028;-32
2022/10/31 03:56:40;;;;;;;3.67;2.50;;;7.00;99.90;;;;;;4988769;28;20034;-33
2022/10/31 03:59:15;;;;;;;3.58;2.67;;;7.00;99.90;;;;;;4990504;28;20061;-31
2022/10/31 04:01:46;;;;;;;4.90;2.83;;;7.00;99.90;;;;;;5002651;28;20026;-34
2022/10/31 04:04:13;;;;;;;5.47;3.33;;;7.00;99.90;;;;;;4987527;28;20499;-33
2022/10/31 04:06:41;;;;;;;5.00;2.95;;;6.90;99.90;;;;;;4990703;28;20044;-32
2022/10/31 04:09:09;;;;;;;4.38;2.90;;;6.90;99.90;;;;;;4990082;28;20564;-35
2022/10/31 04:11:40;;;;;;;2.80;2.60;;;6.80;99.90;;;;;;4990181;28;20069;-34
2022/10/31 04:14:08;;;;;;;3.78;3.10;;;6.70;99.90;;;;;;4988843;28;20281;-32
2022/10/31 04:16:33;;;;;;;3.95;3.10;;;6.70;99.90;;;;;;4990404;28;20027;-37
2022/10/31 04:18:59;;;;;;;4.72;2.70;;;6.60;99.90;;;;;;5005709;28;20041;-31
2022/10/31 04:21:30;;;;;;;5.53;2.53;;;6.80;99.90;;;;;;4987888;28;20144;-32
2022/10/31 04:23:56;;;;;;;3.70;2.75;;;6.80;99.90;;;;;;4989846;28;20042;-32
2022/10/31 04:26:22;;;;;;;3.42;3.10;;;6.80;99.90;;;;;;4989849;28;20037;-32
2022/10/31 04:28:47;;;;;;;5.07;3.40;;;6.90;99.90;;;;;;4990924;28;20038;-33
2022/10/31 04:31:13;;;;;;;5.65;3.03;;;7.00;99.90;;;;;;4988046;28;20034;-31
2022/10/31 04:33:39;;;;;;;3.40;2.67;;;7.00;99.90;;;;;;4989546;28;20502;-33
2022/10/31 04:36:05;;;;;;;4.15;2.42;;;6.90;99.90;;;;;;4989411;28;20034;-33
2022/10/31 04:38:30;;;;;;;5.53;2.90;;;6.90;99.90;;;;;;4990526;28;20164;-32
2022/10/31 04:40:56;;;;;;;4.75;2.60;;;6.90;99.90;;;;;;4991903;28;20027;-31
2022/10/31 04:43:22;;;;;;;3.13;2.83;;;6.90;99.90;;;;;;4993166;28;20026;-31
2022/10/31 04:45:48;;;;;;;5.85;3.38;;;7.00;99.90;;;;;;4988103;28;20031;-33
2022/10/31 04:48:13;;;;;;;3.53;3.10;;;7.00;99.90;;;;;;4991930;28;20565;-30
2022/10/31 04:50:39;;;;;;;5.50;4.07;;;7.00;99.90;;;;;;4990776;28;20026;-31
2022/10/31 04:53:05;;;;;;;4.22;3.47;;;7.10;99.90;;;;;;4985814;28;20483;-31
2022/10/31 04:55:30;;;;;;;3.90;3.00;;;7.10;99.90;;;;;;4987077;28;20034;-30
2022/10/31 04:57:57;;;;;;;3.75;3.15;;;7.10;99.90;;;;;;4989557;28;20466;-33
2022/10/31 05:00:24;;;;;;;2.78;2.58;;;7.00;99.90;;;;;;4988893;28;20061;-34
2022/10/31 05:02:56;;;;;;;3.53;2.75;;;6.90;99.90;;;;;;4988667;28;20034;-31
2022/10/31 05:05:25;;;;;;;5.70;2.72;;;6.80;99.90;;;;;;4984511;28;20034;-30
2022/10/31 05:07:51;;;;;;;6.20;3.35;;;6.70;99.90;;;;;;4989072;28;20492;-31
2022/10/31 05:10:20;;;;;;;3.28;2.85;;;6.80;99.90;;;;;;4989760;28;20348;-31
2022/10/31 05:12:50;;;;;;;;;;;6.70;99.90;;;;;;4986539;28;20125;-32
2022/10/31 05:15:17;;;;;;;5.80;3.20;;;6.80;99.90;;;;;;4988817;28;20319;-33
2022/10/31 05:17:42;;;;;;;7.55;3.75;;;6.80;99.90;;;;;;4988655;28;20093;-33
2022/10/31 05:20:09;;;;;;;6.72;4.07;;;6.80;99.90;;;;;;4989279;28;20046;-31
2022/10/31 05:22:34;;;;;;;7.88;3.58;;;6.80;99.90;;;;;;4987675;28;20157;-35
2022/10/31 05:25:00;;;;;;;7.32;3.22;;;6.90;99.90;;;;;;4989045;28;20664;-34
2022/10/31 05:27:25;;;;;;;6.38;4.13;;;7.00;99.90;;;;;;4987661;28;20391;-33
2022/10/31 05:29:51;;;;;;;5.63;3.42;;;7.00;99.90;;;;;;4987753;28;20080;-32
2022/10/31 05:32:16;;;;;;;6.43;4.10;;;7.00;99.90;;;;;;4984781;28;20062;-33
2022/10/31 05:34:43;;;;;;;8.48;5.00;;;7.00;99.90;;;;;;4987715;28;20049;-32
2022/10/31 05:37:08;;;;;;;5.22;3.65;;;7.00;99.90;;;;;;4988712;28;20022;-31
2022/10/31 05:39:34;;;;;;;14.82;4.07;;;7.10;99.90;;;;;;4985264;28;20038;-32
2022/10/31 05:42:00;;;;;;;4.28;3.05;;;7.10;99.90;;;;;;4993085;28;20122;-33
2022/10/31 05:44:25;;;;;;;3.85;3.47;;;7.00;99.90;;;;;;4985693;28;20538;-32
2022/10/31 05:46:51;;;;;;;7.43;4.18;;;7.00;99.90;;;;;;4987491;28;20424;-31
2022/10/31 05:49:17;;;;;;;9.30;6.03;;;7.00;99.90;;;;;;4988937;28;20042;-32
2022/10/31 05:51:42;;;;;;;7.82;4.20;;;7.00;99.90;;;;;;4991759;28;20058;-34
2022/10/31 05:54:08;;;;;;;7.50;3.97;;;7.00;99.90;;;;;;4982596;28;20125;-32
2022/10/31 05:56:34;;;;;;;5.90;3.55;;;7.00;99.90;;;;;;4988924;28;20121;-33
2022/10/31 05:58:59;;;;;;;6.65;3.28;;;7.00;99.90;;;;;;4983498;28;20030;-31
2022/10/31 06:01:25;;;;;;;7.03;3.85;;;7.00;99.90;;;;;;4998014;28;20561;-32
2022/10/31 06:03:50;;;;;;;8.00;4.38;;;7.00;99.90;;;;;;4998475;28;20073;-35
2022/10/31 06:06:16;;;;;;;6.80;4.10;;;7.00;99.90;;;;;;5002484;28;20101;-32
2022/10/31 06:08:42;;;;;;;5.47;3.50;;;7.00;99.90;;;;;;4989830;28;20033;-31
2022/10/31 06:11:08;;;;;;;6.80;4.15;;;7.00;99.90;;;;;;4988313;28;20499;-33
2022/10/31 06:13:33;;;;;;;11.90;5.97;;;7.00;99.90;;;;;;4988718;28;20058;-33
2022/10/31 06:15:59;;;;;;;14.00;6.15;;;7.10;99.90;;;;;;4982112;28;20125;-32
2022/10/31 06:18:24;;;;;;;6.93;3.35;;;7.00;99.90;;;;;;4983327;28;20030;-34
2022/10/31 06:20:50;;;;;;;10.02;5.20;;;7.00;99.90;;;;;;4998673;28;20038;-35
2022/10/31 06:23:16;;;;;;;15.60;6.03;;;6.90;99.90;;;;;;4987282;28;20100;-33
2022/10/31 06:25:41;;;;;;;10.60;5.85;;;7.00;99.90;;;;;;4981067;28;20038;-33
2022/10/31 06:28:07;;;;;;;8.10;4.43;;;6.90;99.90;;;;;;4991721;28;20112;-31
2022/10/31 06:30:33;;;;;;;8.23;5.00;;;6.90;99.90;;;;;;4987299;28;20109;-32
2022/10/31 06:33:05;;;;;;;6.55;3.95;;;7.00;99.90;;;;;;4988799;28;20379;-34
2022/10/31 06:35:31;;;;;;;6.05;3.58;;;7.00;99.90;;;;;;4980636;28;20034;-35
2022/10/31 06:37:57;;;;;;;11.10;3.58;;;7.00;99.90;;;;;;4982281;28;20141;-35
2022/10/31 06:40:23;;;;;;;4.32;3.13;;;7.00;99.90;;;;;;4989273;28;20062;-31
2022/10/31 06:42:59;;;;;;;4.63;3.15;;;7.00;99.90;;;;;;4983163;28;20097;-31
2022/10/31 06:45:26;;;;;;;8.98;3.55;;;7.00;99.90;;;;;;4984588;28;20022;-32
2022/10/31 06:47:55;;;;;;;3.63;2.60;;;6.80;99.90;;;;;;4982416;28;20038;-33
2022/10/31 06:50:22;;;;;;;2.97;2.50;;;6.80;99.90;;;;;;4984090;28;20045;-31
2022/10/31 06:52:58;;;;;;;3.90;2.90;;;6.90;99.90;;;;;;4982031;28;20038;-31
2022/10/31 06:55:25;;;;;;;3.47;2.78;;;6.80;99.90;;;;;;4985094;28;20073;-32
2022/10/31 06:58:01;;;;;;;4.57;2.45;;;6.80;99.90;;;;;;4990091;28;20407;-31
2022/10/31 07:00:29;;;;;;;3.38;2.80;;;6.80;99.90;;;;;;4986166;28;20034;-31
2022/10/31 07:03:02;;;;;;;6.03;3.20;;;6.90;99.90;;;;;;4984228;28;20064;-31
2022/10/31 07:05:29;;;;;;;3.53;2.83;;;6.90;99.90;;;;;;4984906;28;20463;-31
2022/10/31 07:07:59;;;;;;;4.35;2.97;;;7.00;99.90;;;;;;4985718;28;20737;-33
2022/10/31 07:10:27;;;;;;;4.00;3.63;;;7.00;99.90;;;;;;4983100;28;20638;-34
2022/10/31 07:12:57;;;;;;;5.63;3.60;;;7.00;99.90;;;;;;4982989;28;20391;-32
2022/10/31 07:15:23;;;;;;;5.95;4.57;;;7.10;99.90;;;;;;5003667;28;20034;-32
2022/10/31 07:17:49;;;;;;;12.05;7.53;;;7.20;99.90;;;;;;4987232;28;20069;-32
2022/10/31 07:20:15;;;;;;;15.57;9.57;;;7.20;99.90;;;;;;4985137;28;20111;-34
2022/10/31 07:22:40;;;;;;;15.55;9.30;;;7.30;99.90;;;;;;4987413;28;20026;-31
2022/10/31 07:25:06;;;;;;;12.50;8.55;;;7.30;99.90;;;;;;4985880;28;20026;-32
2022/10/31 07:27:37;;;;;;;15.13;7.85;;;7.40;99.90;;;;;;4987259;28;20038;-35
2022/10/31 07:30:03;;;;;;;12.52;7.10;;;7.40;99.90;;;;;;5003821;28;20391;-33
2022/10/31 07:32:37;;;;;;;38.35;11.50;;;7.50;99.90;;;;;;4993801;28;20093;-32
2022/10/31 07:35:03;;;;;;;30.48;6.38;;;7.60;99.90;;;;;;4992968;28;20026;-32
2022/10/31 07:37:29;;;;;;;16.05;6.10;;;7.60;99.90;;;;;;4991190;28;20611;-32
2022/10/31 07:39:54;;;;;;;8.13;4.60;;;7.60;99.90;;;;;;4992491;28;20353;-31
2022/10/31 07:42:20;;;;;;;8.05;5.15;;;7.60;99.90;;;;;;4992578;28;20464;-32
2022/10/31 07:44:46;;;;;;;5.88;4.82;;;7.60;99.90;;;;;;4989577;28;20034;-33
2022/10/31 07:47:11;;;;;;;7.38;4.78;;;7.70;99.90;;;;;;5007512;28;20084;-32
2022/10/31 07:49:37;;;;;;;8.15;5.07;;;7.70;99.90;;;;;;4991114;28;20026;-31
2022/10/31 07:52:02;;;;;;;7.80;4.75;;;7.80;99.90;;;;;;4992712;28;20041;-34
2022/10/31 07:54:28;;;;;;;7.05;4.70;;;7.90;99.90;;;;;;4992049;28;20156;-32
2022/10/31 07:56:54;;;;;;;10.57;5.90;;;8.00;99.90;;;;;;4991372;28;20090;-32
2022/10/31 07:59:19;;;;;;;6.80;4.90;;;8.00;99.90;;;;;;4991123;28;20034;-34
2022/10/31 08:01:45;;;;;;;6.03;4.90;;;8.10;99.90;;;;;;4990141;28;20038;-31
2022/10/31 08:04:10;;;;;;;6.88;4.70;;;8.20;99.90;;;;;;5006753;28;20042;-32
2022/10/31 08:06:36;;;;;;;6.32;4.43;;;8.30;99.90;;;;;;4993248;28;20434;-32
2022/10/31 08:09:02;;;;;;;5.75;4.25;;;8.40;99.90;;;;;;4989008;28;20092;-33
2022/10/31 08:11:27;;;;;;;5.85;4.57;;;8.50;99.90;;;;;;4993628;28;20114;-34
2022/10/31 08:13:53;;;;;;;8.13;5.00;;;8.60;99.90;;;;;;4986856;28;20029;-33
2022/10/31 08:16:18;;;;;;;6.47;4.43;;;8.70;99.90;;;;;;4992340;28;20613;-33
2022/10/31 08:18:44;;;;;;;9.80;5.20;;;8.90;99.90;;;;;;4990026;28;20038;-31
2022/10/31 08:21:10;;;;;;;8.20;5.63;;;9.00;99.90;;;;;;4991844;28;20030;-31
2022/10/31 08:23:36;;;;;;;12.68;5.30;;;9.20;99.90;;;;;;4992323;28;20026;-33
2022/10/31 08:26:01;;;;;;;6.93;4.68;;;9.30;99.90;;;;;;4985747;28;20125;-32
2022/10/31 08:28:27;;;;;;;8.13;5.13;;;9.50;99.90;;;;;;4991089;28;20030;-31
2022/10/31 08:30:52;;;;;;;10.63;5.78;;;9.60;99.90;;;;;;4989282;28;20034;-32
2022/10/31 08:33:21;;;;;;;9.90;5.35;;;9.80;99.90;;;;;;4990241;28;20022;-31
2022/10/31 08:35:47;;;;;;;;;;;9.90;99.90;;;;;;4989166;28;20030;-32
2022/10/31 08:38:13;;;;;;;7.88;5.32;;;10.00;99.90;;;;;;4990190;28;20374;-31
2022/10/31 08:40:39;;;;;;;11.60;6.90;;;10.10;99.90;;;;;;5001090;28;20113;-30
2022/10/31 08:43:10;;;;;;;7.85;5.43;;;10.30;99.90;;;;;;4993909;28;20551;-32
2022/10/31 08:45:36;;;;;;;10.88;5.88;;;10.40;99.90;;;;;;4989873;28;20037;-31
2022/10/31 08:48:05;;;;;;;7.22;5.40;;;10.50;99.90;;;;;;5002472;28;20030;-36
2022/10/31 08:50:33;;;;;;;10.73;5.95;;;10.60;99.90;;;;;;4986444;28;20026;-33
2022/10/31 08:53:04;;;;;;;9.85;5.68;;;10.80;99.90;;;;;;4987021;28;20775;-31
2022/10/31 08:55:30;;;;;;;10.75;5.43;;;10.90;99.90;;;;;;4986066;28;20037;-32
2022/10/31 08:57:57;;;;;;;9.73;6.05;;;11.00;99.90;;;;;;4989051;28;20034;-31
2022/10/31 09:00:22;;;;;;;10.30;5.65;;;11.20;99.90;;;;;;4990102;28;20031;-31
2022/10/31 09:03:13;;;;;;;7.88;5.60;;;11.30;99.90;;;;;;4987327;28;20048;-42
2022/10/31 09:05:39;;;;;;;9.00;5.07;;;11.50;99.90;;;;;;4989314;28;20484;-40
2022/10/31 09:08:06;;;;;;;12.93;5.93;;;11.60;99.90;;;;;;4982581;28;20490;-41
2022/10/31 09:10:34;;;;;;;10.55;5.57;;;11.80;99.90;;;;;;4985000;28;20124;-40
2022/10/31 09:13:06;;;;;;;10.73;5.80;;;12.00;99.90;;;;;;4986536;28;20443;-39
2022/10/31 09:15:33;;;;;;;8.32;5.30;;;12.10;99.90;;;;;;5003705;28;20038;-39
2022/10/31 09:18:00;;;;;;;7.20;4.82;;;12.20;99.90;;;;;;4986208;28;20498;-41
2022/10/31 09:20:26;;;;;;;10.00;5.82;;;12.40;99.90;;;;;;4985490;28;20038;-42
2022/10/31 09:23:09;;;;;;;9.15;5.53;;;12.60;99.90;;;;;;4986125;28;20033;-40
2022/10/31 09:25:35;;;;;;;11.43;5.75;;;12.70;99.90;;;;;;4989207;28;20030;-35
2022/10/31 09:28:03;;;;;;;12.20;5.47;;;12.80;99.90;;;;;;4988706;28;20041;-42
2022/10/31 09:30:31;;;;;;;10.25;5.47;;;13.00;99.90;;;;;;4987243;28;20046;-42
2022/10/31 09:33:02;;;;;;;13.75;5.35;;;13.10;99.90;;;;;;4989330;28;20026;-38
2022/10/31 09:35:27;;;;;;;10.75;5.32;;;13.20;99.90;;;;;;4990739;28;20126;-41
2022/10/31 09:37:57;;;;;;;9.27;5.32;;;13.30;99.90;;;;;;4988152;28;20042;-41
2022/10/31 09:40:32;;;;;;;6.72;5.10;;;13.40;99.90;;;;;;4993235;28;20154;-43
2022/10/31 09:43:08;;;;;;;10.65;4.93;;;13.50;99.90;;;;;;4990505;28;20027;-42
2022/10/31 09:45:41;;;;;;;11.45;5.68;;;13.50;99.90;;;;;;4988003;28;20014;-41
2022/10/31 09:48:50;;;;;;;6.95;4.10;;;13.70;99.90;;;;;;4987562;28;20034;-42
2022/10/31 09:51:20;;;;;;;11.07;5.20;;;13.80;99.90;;;;;;4991552;28;20061;-38
2022/10/31 09:54:04;;;;;;;12.50;6.40;;;13.90;99.90;;;;;;4988699;28;20521;-41
2022/10/31 09:56:31;;;;;;;15.43;7.32;;;14.10;99.90;;;;;;4986548;28;21406;-41
2022/10/31 09:59:00;;;;;;;14.25;8.55;;;14.20;99.90;;;;;;4987454;28;20069;-37
2022/10/31 10:01:55;;;;;;;11.93;7.93;;;14.30;99.90;;;;;;4987960;28;20424;-42
2022/10/31 10:04:37;;;;;;;14.98;7.85;;;14.30;99.90;;;;;;4987559;28;20132;-41
2022/10/31 10:07:22;;;;;;;16.33;7.47;;;14.30;99.90;;;;;;4986609;28;20040;-39
2022/10/31 10:09:49;;;;;;;14.45;7.28;;;14.30;99.90;;;;;;4988938;28;20105;-41
2022/10/31 10:12:51;;;;;;;11.10;7.38;;;14.40;99.90;;;;;;4986416;28;20049;-42
2022/10/31 10:15:31;;;;;;;15.95;7.32;;;14.30;99.90;;;;;;4986773;28;20045;-39
2022/10/31 10:18:05;;;;;;;11.02;6.18;;;14.40;99.90;;;;;;4988359;28;20030;-42
2022/10/31 10:20:40;;;;;;;9.70;6.30;;;14.40;99.90;;;;;;4985771;28;20663;-42
2022/10/31 10:23:38;;;;;;;11.38;6.40;;;14.50;99.90;;;;;;4989104;28;20548;-42
2022/10/31 10:26:18;;;;;;;11.07;6.15;;;14.60;99.90;;;;;;4988697;28;20121;-42
2022/10/31 10:28:57;;;;;;;16.13;6.43;;;14.60;99.90;;;;;;4987073;28;20026;-42
2022/10/31 10:31:34;;;;;;;9.32;6.35;;;14.60;99.90;;;;;;4986147;28;20519;-39
2022/10/31 10:34:06;;;;;;;13.32;7.05;;;14.60;99.90;;;;;;4985021;28;20030;-40
2022/10/31 10:36:40;;;;;;;11.18;6.25;;;14.70;99.90;;;;;;4986020;28;20680;-42
2022/10/31 10:39:27;;;;;;;14.00;7.10;;;14.80;99.90;;;;;;4990890;28;20093;-37
2022/10/31 10:47:40;;;;;;;12.23;7.13;;;15.00;99.90;;;;;;4989514;28;20042;-42
2022/10/31 10:50:23;;;;;;;14.02;8.07;;;15.10;99.90;;;;;;4983611;28;20038;-40
2022/10/31 10:53:00;;;;;;;14.05;8.10;;;15.10;99.90;;;;;;4987459;28;20030;-41
2022/10/31 10:55:44;;;;;;;11.95;8.07;;;15.20;99.90;;;;;;4986158;28;20038;-35
2022/10/31 10:58:10;;;;;;;19.02;8.90;;;15.30;99.90;;;;;;4985759;28;20041;-41
2022/10/31 11:00:42;;;;;;;15.65;8.77;;;15.20;99.90;;;;;;4988590;28;20049;-39
2022/10/31 11:03:09;;;;;;;15.65;8.73;;;15.30;99.90;;;;;;4987645;28;20030;-41
2022/10/31 11:05:37;;;;;;;20.67;9.27;;;15.40;99.90;;;;;;4989800;28;20041;-41
2022/10/31 11:08:04;;;;;;;21.80;9.52;;;15.30;99.90;;;;;;4988966;28;20368;-39
2022/10/31 11:10:30;;;;;;;22.08;10.15;;;15.30;99.90;;;;;;4987372;28;20411;-39
2022/10/31 11:13:00;;;;;;;20.70;10.02;;;15.30;99.90;;;;;;4989334;28;20041;-40
2022/10/31 11:15:28;;;;;;;17.83;11.05;;;15.30;99.90;;;;;;5001067;28;20038;-39
2022/10/31 11:17:55;;;;;;;16.80;10.07;;;15.30;99.90;;;;;;5002861;28;20033;-40
2022/10/31 11:20:34;;;;;;;21.67;11.83;;;15.30;99.90;;;;;;4987400;28;20715;-41
2022/10/31 11:23:22;;;;;;;20.80;12.85;;;15.30;99.90;;;;;;4984085;28;20550;-41
2022/10/31 11:26:04;;;;;;;24.15;12.95;;;15.30;99.90;;;;;;4987710;28;20061;-41
2022/10/31 11:28:34;;;;;;;29.25;13.52;;;15.30;99.90;;;;;;4990261;28;20038;-42
2022/10/31 11:31:08;;;;;;;25.50;13.98;;;15.30;99.90;;;;;;4987484;28;20026;-40
2022/10/31 11:33:36;;;;;;;25.77;13.85;;;15.20;99.90;;;;;;4987946;28;20049;-41
2022/10/31 11:36:13;;;;;;;26.50;13.73;;;15.30;99.90;;;;;;4987311;28;20026;-41
2022/10/31 11:38:43;;;;;;;24.65;13.57;;;15.30;99.90;;;;;;4983819;28;20053;-39
2022/10/31 11:41:15;;;;;;;27.50;15.00;;;15.30;99.90;;;;;;4988608;28;20030;-41
2022/10/31 11:43:51;;;;;;;29.35;14.48;;;15.30;99.90;;;;;;4988030;28;20077;-39
2022/10/31 11:46:34;;;;;;;23.23;13.57;;;15.40;99.90;;;;;;4991404;28;20319;-41
2022/10/31 11:49:00;;;;;;;25.05;13.88;;;15.40;99.90;;;;;;4983443;28;20036;-41
2022/10/31 11:51:31;;;;;;;29.50;13.85;;;15.50;99.90;;;;;;4987392;28;20030;-41
2022/10/31 11:53:59;;;;;;;26.45;13.27;;;15.50;99.90;;;;;;4986280;28;20042;-38
2022/10/31 11:56:25;;;;;;;22.25;13.60;;;15.60;99.90;;;;;;4989051;28;20089;-42
2022/10/31 11:59:02;;;;;;;24.52;11.93;;;15.70;99.90;;;;;;4988230;28;20038;-38
2022/10/31 12:01:29;;;;;;;21.05;12.57;;;15.70;99.90;;;;;;4985803;28;20613;-39
2022/10/31 12:04:11;;;;;;;25.50;12.88;;;15.90;99.90;;;;;;4986903;28;20042;-40
2022/10/31 12:06:42;;;;;;;26.75;12.93;;;16.00;99.90;;;;;;4986894;28;20026;-40
2022/10/31 12:09:19;;;;;;;25.08;13.73;;;16.00;99.90;;;;;;4987306;28;20057;-37
2022/10/31 12:12:06;;;;;;;24.65;12.25;;;16.10;99.90;;;;;;4987301;28;20026;-40
2022/10/31 12:15:04;;;;;;;27.05;14.32;;;16.10;99.90;;;;;;4987875;28;20080;-40
2022/10/31 12:18:08;;;;;;;22.80;12.95;;;16.20;99.90;;;;;;4990657;28;20066;-41
2022/10/31 12:20:55;;;;;;;19.33;12.38;;;16.20;99.90;;;;;;4989766;28;20123;-39
2022/10/31 12:23:24;;;;;;;22.13;12.52;;;16.30;99.90;;;;;;4987121;28;20030;-40
2022/10/31 12:26:01;;;;;;;18.17;12.30;;;16.20;99.90;;;;;;4990825;28;20027;-39
2022/10/31 12:29:06;;;;;;;17.88;12.75;;;16.10;99.90;;;;;;4989634;28;20168;-36
2022/10/31 12:31:56;;;;;;;21.27;12.82;;;15.90;99.90;;;;;;4989603;28;20066;-37
2022/10/31 12:34:43;;;;;;;20.08;13.10;;;15.80;99.90;;;;;;4990498;28;20038;-40
2022/10/31 12:37:24;;;;;;;21.83;13.90;;;15.60;99.90;;;;;;4988246;28;20026;-40
2022/10/31 12:40:11;;;;;;;21.25;13.73;;;15.50;99.90;;;;;;4988248;28;20026;-35
2022/10/31 12:42:36;;;;;;;21.25;12.90;;;15.50;99.90;;;;;;4990749;28;20107;-41
2022/10/31 12:45:21;;;;;;;25.92;13.98;;;15.50;99.90;;;;;;4991315;28;20022;-40
2022/10/31 12:48:10;;;;;;;22.63;13.80;;;15.60;99.90;;;;;;4988367;28;20038;-40
2022/10/31 12:51:10;;;;;;;21.02;13.43;;;15.60;99.90;;;;;;5007043;28;20045;-39
2022/10/31 12:54:07;;;;;;;25.63;14.55;;;15.70;99.90;;;;;;4981557;28;20045;-38
2022/10/31 12:56:56;;;;;;;21.45;13.73;;;15.70;99.90;;;;;;4990371;28;20038;-41
2022/10/31 12:59:57;;;;;;;24.90;13.85;;;15.60;99.90;;;;;;4992020;28;20042;-40
2022/10/31 13:02:50;;;;;;;22.30;14.30;;;15.60;99.90;;;;;;4986085;28;20133;-42
2022/10/31 13:05:27;;;;;;;24.40;14.43;;;15.50;99.90;;;;;;4991829;28;20042;-41
2022/10/31 13:07:58;;;;;;;21.95;14.27;;;15.40;99.90;;;;;;5003201;28;20093;-40
2022/10/31 13:11:01;;;;;;;;;;;;;;;;;;;;;
2022/10/31 13:13:57;;;;;;;24.02;13.73;;;15.40;99.90;;;;;;4986762;28;20068;-83
2022/10/31 13:16:26;;;;;;;21.38;13.90;;;15.40;99.90;;;;;;4990608;28;20407;-82
2022/10/31 13:19:09;;;;;;;21.80;14.25;;;15.40;99.90;;;;;;4992954;28;20041;-82
2022/10/31 13:21:56;;;;;;;23.88;13.85;;;15.30;99.90;;;;;;5000968;28;20030;-82